sensor_id;sensor_type;location;lat;lon;timestamp;temperature;humidity
55648;DHT22;45266;48.756;9.246;2023-12-20T00:04:06;4.10;90.30
55648;DHT22;45266;48.756;9.246;2023-12-20T00:09:09;4.20;90.50
55648;DHT22;45266;48.756;9.246;2023-12-20T00:14:11;4.10;90.80
55648;DHT22;45266;48.756;9.246;2023-12-20T00:19:14;4.10;92.00
55648;DHT22;45266;48.756;9.246;2023-12-20T00:24:20;4.00;92.50
55648;DHT22;45266;48.756;9.246;2023-12-20T00:29:25;4.00;92.60
55648;DHT22;45266;48.756;9.246;2023-12-20T00:34:28;4.10;92.70
55648;DHT22;45266;48.756;9.246;2023-12-20T00:39:30;4.20;92.30
55648;DHT22;45266;48.756;9.246;2023-12-20T00:44:33;4.30;92.60
55648;DHT22;45266;48.756;9.246;2023-12-20T00:49:35;4.30;93.20
55648;DHT22;45266;48.756;9.246;2023-12-20T00:54:38;4.20;93.30
55648;DHT22;45266;48.756;9.246;2023-12-20T00:59:42;4.10;94.00
55648;DHT22;45266;48.756;9.246;2023-12-20T01:04:46;4.10;94.90
55648;DHT22;45266;48.756;9.246;2023-12-20T01:09:49;4.20;95.40
55648;DHT22;45266;48.756;9.246;2023-12-20T01:14:52;4.20;95.70
55648;DHT22;45266;48.756;9.246;2023-12-20T01:19:54;4.20;96.00
55648;DHT22;45266;48.756;9.246;2023-12-20T01:24:57;4.10;96.10
55648;DHT22;45266;48.756;9.246;2023-12-20T01:29:59;4.00;96.40
55648;DHT22;45266;48.756;9.246;2023-12-20T01:35:02;3.90;96.80
55648;DHT22;45266;48.756;9.246;2023-12-20T01:40:06;3.90;97.20
55648;DHT22;45266;48.756;9.246;2023-12-20T01:45:09;3.90;98.00
55648;DHT22;45266;48.756;9.246;2023-12-20T01:50:13;3.80;98.30
55648;DHT22;45266;48.756;9.246;2023-12-20T01:55:17;3.70;98.80
55648;DHT22;45266;48.756;9.246;2023-12-20T02:00:21;3.70;99.20
55648;DHT22;45266;48.756;9.246;2023-12-20T02:05:31;3.70;99.30
55648;DHT22;45266;48.756;9.246;2023-12-20T02:10:37;3.60;99.30
55648;DHT22;45266;48.756;9.246;2023-12-20T02:15:40;3.70;99.60
55648;DHT22;45266;48.756;9.246;2023-12-20T02:20:46;3.70;99.70
55648;DHT22;45266;48.756;9.246;2023-12-20T02:25:48;3.70;99.90
55648;DHT22;45266;48.756;9.246;2023-12-20T02:30:51;3.70;99.90
55648;DHT22;45266;48.756;9.246;2023-12-20T02:35:54;3.60;99.90
55648;DHT22;45266;48.756;9.246;2023-12-20T02:40:56;3.60;99.90
55648;DHT22;45266;48.756;9.246;2023-12-20T02:46:00;3.60;99.90
55648;DHT22;45266;48.756;9.246;2023-12-20T02:51:02;3.60;99.90
55648;DHT22;45266;48.756;9.246;2023-12-20T02:56:10;3.50;99.90
55648;DHT22;45266;48.756;9.246;2023-12-20T03:01:13;3.50;99.90
55648;DHT22;45266;48.756;9.246;2023-12-20T03:06:19;3.50;99.90
55648;DHT22;45266;48.756;9.246;2023-12-20T03:11:27;3.50;99.90
55648;DHT22;45266;48.756;9.246;2023-12-20T03:16:30;3.50;99.90
55648;DHT22;45266;48.756;9.246;2023-12-20T03:21:37;3.50;99.90
55648;DHT22;45266;48.756;9.246;2023-12-20T03:26:40;3.50;99.90
55648;DHT22;45266;48.756;9.246;2023-12-20T03:31:42;3.40;99.90
55648;DHT22;45266;48.756;9.246;2023-12-20T03:36:45;3.40;99.90
55648;DHT22;45266;48.756;9.246;2023-12-20T03:41:50;3.30;99.90
55648;DHT22;45266;48.756;9.246;2023-12-20T03:46:56;3.30;99.90
55648;DHT22;45266;48.756;9.246;2023-12-20T03:51:58;3.30;99.90
55648;DHT22;45266;48.756;9.246;2023-12-20T03:57:04;3.30;99.90
55648;DHT22;45266;48.756;9.246;2023-12-20T04:02:07;3.30;99.90
55648;DHT22;45266;48.756;9.246;2023-12-20T04:07:11;3.40;99.90
55648;DHT22;45266;48.756;9.246;2023-12-20T04:12:13;3.40;99.90
55648;DHT22;45266;48.756;9.246;2023-12-20T04:17:16;3.40;99.90
55648;DHT22;45266;48.756;9.246;2023-12-20T04:22:18;3.50;99.90
55648;DHT22;45266;48.756;9.246;2023-12-20T04:27:22;3.50;99.90
55648;DHT22;45266;48.756;9.246;2023-12-20T04:32:24;3.50;99.90
55648;DHT22;45266;48.756;9.246;2023-12-20T04:37:28;3.50;99.90
55648;DHT22;45266;48.756;9.246;2023-12-20T04:42:30;3.40;99.90
55648;DHT22;45266;48.756;9.246;2023-12-20T04:47:33;3.40;99.90
55648;DHT22;45266;48.756;9.246;2023-12-20T04:52:35;3.30;99.90
55648;DHT22;45266;48.756;9.246;2023-12-20T04:57:39;3.30;99.90
55648;DHT22;45266;48.756;9.246;2023-12-20T05:02:44;3.30;99.90
55648;DHT22;45266;48.756;9.246;2023-12-20T05:07:48;3.30;99.90
55648;DHT22;45266;48.756;9.246;2023-12-20T05:12:52;3.30;99.90
55648;DHT22;45266;48.756;9.246;2023-12-20T05:17:57;3.30;99.90
55648;DHT22;45266;48.756;9.246;2023-12-20T05:23:01;3.30;99.90
55648;DHT22;45266;48.756;9.246;2023-12-20T05:28:21;3.30;99.90
55648;DHT22;45266;48.756;9.246;2023-12-20T05:33:38;3.30;99.90
55648;DHT22;45266;48.756;9.246;2023-12-20T05:38:42;3.30;99.90
55648;DHT22;45266;48.756;9.246;2023-12-20T05:43:47;3.30;99.90
55648;DHT22;45266;48.756;9.246;2023-12-20T05:48:50;3.20;99.90
55648;DHT22;45266;48.756;9.246;2023-12-20T05:54:01;3.20;99.90
55648;DHT22;45266;48.756;9.246;2023-12-20T05:59:17;3.20;99.90
55648;DHT22;45266;48.756;9.246;2023-12-20T06:04:31;3.30;99.90
55648;DHT22;45266;48.756;9.246;2023-12-20T06:10:33;3.30;99.90
55648;DHT22;45266;48.756;9.246;2023-12-20T06:16:21;3.30;99.90
55648;DHT22;45266;48.756;9.246;2023-12-20T06:21:31;3.30;99.90
55648;DHT22;45266;48.756;9.246;2023-12-20T06:26:49;3.30;99.90
55648;DHT22;45266;48.756;9.246;2023-12-20T06:32:06;3.30;99.90
55648;DHT22;45266;48.756;9.246;2023-12-20T06:37:14;3.30;99.90
55648;DHT22;45266;48.756;9.246;2023-12-20T06:42:19;3.30;99.90
55648;DHT22;45266;48.756;9.246;2023-12-20T06:47:23;3.40;99.90
55648;DHT22;45266;48.756;9.246;2023-12-20T06:52:31;3.50;99.90
55648;DHT22;45266;48.756;9.246;2023-12-20T06:57:37;3.50;99.90
55648;DHT22;45266;48.756;9.246;2023-12-20T07:02:47;3.50;99.90
55648;DHT22;45266;48.756;9.246;2023-12-20T07:07:56;3.40;99.90
55648;DHT22;45266;48.756;9.246;2023-12-20T07:13:08;3.40;99.90
55648;DHT22;45266;48.756;9.246;2023-12-20T07:18:19;3.50;99.90
55648;DHT22;45266;48.756;9.246;2023-12-20T07:23:30;3.50;99.90
55648;DHT22;45266;48.756;9.246;2023-12-20T07:28:42;3.40;99.90
55648;DHT22;45266;48.756;9.246;2023-12-20T07:33:53;3.40;99.90
55648;DHT22;45266;48.756;9.246;2023-12-20T07:39:02;3.40;99.90
55648;DHT22;45266;48.756;9.246;2023-12-20T07:44:11;3.40;99.90
55648;DHT22;45266;48.756;9.246;2023-12-20T07:49:22;3.40;99.90
55648;DHT22;45266;48.756;9.246;2023-12-20T07:54:33;3.50;99.90
55648;DHT22;45266;48.756;9.246;2023-12-20T07:59:43;3.50;99.90
55648;DHT22;45266;48.756;9.246;2023-12-20T08:04:52;3.70;99.90
55648;DHT22;45266;48.756;9.246;2023-12-20T08:10:05;3.90;99.90
55648;DHT22;45266;48.756;9.246;2023-12-20T08:15:17;3.90;99.90
55648;DHT22;45266;48.756;9.246;2023-12-20T08:20:29;3.90;99.90
55648;DHT22;45266;48.756;9.246;2023-12-20T08:25:44;4.00;99.30
55648;DHT22;45266;48.756;9.246;2023-12-20T08:30:57;3.90;98.40
55648;DHT22;45266;48.756;9.246;2023-12-20T08:36:07;4.00;97.50
55648;DHT22;45266;48.756;9.246;2023-12-20T08:41:22;4.00;97.40
55648;DHT22;45266;48.756;9.246;2023-12-20T08:46:28;4.10;96.70
55648;DHT22;45266;48.756;9.246;2023-12-20T08:51:38;4.10;95.20
55648;DHT22;45266;48.756;9.246;2023-12-20T08:56:52;4.00;93.60
55648;DHT22;45266;48.756;9.246;2023-12-20T09:02:03;4.00;92.70
55648;DHT22;45266;48.756;9.246;2023-12-20T09:07:28;3.90;92.30
55648;DHT22;45266;48.756;9.246;2023-12-20T09:12:42;3.70;91.40
55648;DHT22;45266;48.756;9.246;2023-12-20T09:17:48;3.70;91.50
55648;DHT22;45266;48.756;9.246;2023-12-20T09:23:02;3.60;92.30
55648;DHT22;45266;48.756;9.246;2023-12-20T09:28:15;3.60;92.50
55648;DHT22;45266;48.756;9.246;2023-12-20T09:33:26;3.50;93.10
55648;DHT22;45266;48.756;9.246;2023-12-20T09:38:39;3.50;92.90
55648;DHT22;45266;48.756;9.246;2023-12-20T09:43:52;3.50;91.60
55648;DHT22;45266;48.756;9.246;2023-12-20T09:49:07;3.60;90.60
55648;DHT22;45266;48.756;9.246;2023-12-20T09:54:20;3.90;88.70
55648;DHT22;45266;48.756;9.246;2023-12-20T09:59:32;4.00;86.70
55648;DHT22;45266;48.756;9.246;2023-12-20T10:04:47;4.10;84.90
55648;DHT22;45266;48.756;9.246;2023-12-20T10:09:58;4.20;84.40
55648;DHT22;45266;48.756;9.246;2023-12-20T10:15:10;4.10;83.00
55648;DHT22;45266;48.756;9.246;2023-12-20T10:20:23;4.20;82.30
55648;DHT22;45266;48.756;9.246;2023-12-20T10:25:31;4.30;81.10
55648;DHT22;45266;48.756;9.246;2023-12-20T10:30:40;4.40;80.70
55648;DHT22;45266;48.756;9.246;2023-12-20T10:35:55;4.60;78.80
55648;DHT22;45266;48.756;9.246;2023-12-20T10:41:09;4.80;77.60
55648;DHT22;45266;48.756;9.246;2023-12-20T10:46:21;4.90;77.20
55648;DHT22;45266;48.756;9.246;2023-12-20T10:51:35;4.90;76.40
55648;DHT22;45266;48.756;9.246;2023-12-20T10:56:44;5.00;77.00
55648;DHT22;45266;48.756;9.246;2023-12-20T11:01:51;5.00;77.50
55648;DHT22;45266;48.756;9.246;2023-12-20T11:07:29;5.00;78.80
55648;DHT22;45266;48.756;9.246;2023-12-20T11:12:46;5.10;77.90
55648;DHT22;45266;48.756;9.246;2023-12-20T11:18:06;5.10;77.20
55648;DHT22;45266;48.756;9.246;2023-12-20T11:23:09;5.10;76.40
55648;DHT22;45266;48.756;9.246;2023-12-20T11:28:16;5.10;77.00
55648;DHT22;45266;48.756;9.246;2023-12-20T11:33:48;5.20;75.80
55648;DHT22;45266;48.756;9.246;2023-12-20T11:38:57;5.30;73.90
55648;DHT22;45266;48.756;9.246;2023-12-20T11:44:04;5.20;73.50
55648;DHT22;45266;48.756;9.246;2023-12-20T11:49:07;5.10;74.60
55648;DHT22;45266;48.756;9.246;2023-12-20T11:54:15;5.10;73.70
55648;DHT22;45266;48.756;9.246;2023-12-20T11:59:21;5.10;72.80
55648;DHT22;45266;48.756;9.246;2023-12-20T12:04:37;5.10;72.50
55648;DHT22;45266;48.756;9.246;2023-12-20T12:09:42;5.00;73.10
55648;DHT22;45266;48.756;9.246;2023-12-20T12:14:53;5.00;73.50
55648;DHT22;45266;48.756;9.246;2023-12-20T12:20:06;5.00;73.40
55648;DHT22;45266;48.756;9.246;2023-12-20T12:25:11;5.00;74.50
55648;DHT22;45266;48.756;9.246;2023-12-20T12:30:19;5.00;72.60
55648;DHT22;45266;48.756;9.246;2023-12-20T12:35:41;5.10;71.60
55648;DHT22;45266;48.756;9.246;2023-12-20T12:40:54;5.20;72.10
55648;DHT22;45266;48.756;9.246;2023-12-20T12:46:05;5.30;71.30
55648;DHT22;45266;48.756;9.246;2023-12-20T12:51:21;5.20;71.60
55648;DHT22;45266;48.756;9.246;2023-12-20T12:56:34;5.20;70.20
55648;DHT22;45266;48.756;9.246;2023-12-20T13:01:39;5.20;71.20
55648;DHT22;45266;48.756;9.246;2023-12-20T13:06:51;5.30;71.20
55648;DHT22;45266;48.756;9.246;2023-12-20T13:11:55;5.30;71.20
55648;DHT22;45266;48.756;9.246;2023-12-20T13:16:59;5.30;69.80
55648;DHT22;45266;48.756;9.246;2023-12-20T13:22:02;5.50;69.70
55648;DHT22;45266;48.756;9.246;2023-12-20T13:27:04;5.50;69.50
55648;DHT22;45266;48.756;9.246;2023-12-20T13:32:08;5.50;69.70
55648;DHT22;45266;48.756;9.246;2023-12-20T13:37:14;5.50;71.00
55648;DHT22;45266;48.756;9.246;2023-12-20T13:42:20;5.50;71.00
55648;DHT22;45266;48.756;9.246;2023-12-20T13:47:25;5.50;70.60
55648;DHT22;45266;48.756;9.246;2023-12-20T13:52:28;5.50;70.50
55648;DHT22;45266;48.756;9.246;2023-12-20T13:57:35;5.50;71.00
55648;DHT22;45266;48.756;9.246;2023-12-20T14:02:58;5.50;71.00
55648;DHT22;45266;48.756;9.246;2023-12-20T14:08:04;5.50;72.10
55648;DHT22;45266;48.756;9.246;2023-12-20T14:13:16;5.30;71.00
55648;DHT22;45266;48.756;9.246;2023-12-20T14:18:26;5.40;71.30
55648;DHT22;45266;48.756;9.246;2023-12-20T14:23:35;5.30;71.60
55648;DHT22;45266;48.756;9.246;2023-12-20T14:28:47;5.30;71.30
55648;DHT22;45266;48.756;9.246;2023-12-20T14:33:56;5.20;72.10
55648;DHT22;45266;48.756;9.246;2023-12-20T14:39:09;5.10;74.10
55648;DHT22;45266;48.756;9.246;2023-12-20T14:44:16;5.10;72.90
55648;DHT22;45266;48.756;9.246;2023-12-20T14:49:22;5.10;72.90
55648;DHT22;45266;48.756;9.246;2023-12-20T14:54:25;5.00;74.50
55648;DHT22;45266;48.756;9.246;2023-12-20T14:59:32;4.90;75.70
55648;DHT22;45266;48.756;9.246;2023-12-20T15:04:37;4.70;77.00
55648;DHT22;45266;48.756;9.246;2023-12-20T15:09:41;4.70;78.00
55648;DHT22;45266;48.756;9.246;2023-12-20T15:14:50;4.70;77.40
55648;DHT22;45266;48.756;9.246;2023-12-20T15:19:52;4.60;77.10
55648;DHT22;45266;48.756;9.246;2023-12-20T15:24:54;4.70;77.50
55648;DHT22;45266;48.756;9.246;2023-12-20T15:29:57;4.70;77.80
55648;DHT22;45266;48.756;9.246;2023-12-20T15:35:27;4.50;78.00
55648;DHT22;45266;48.756;9.246;2023-12-20T15:40:31;4.50;78.70
55648;DHT22;45266;48.756;9.246;2023-12-20T15:45:40;4.50;79.10
55648;DHT22;45266;48.756;9.246;2023-12-20T15:51:04;4.50;79.20
55648;DHT22;45266;48.756;9.246;2023-12-20T15:56:12;4.50;79.50
55648;DHT22;45266;48.756;9.246;2023-12-20T16:01:25;4.50;79.80
55648;DHT22;45266;48.756;9.246;2023-12-20T16:06:29;4.40;80.20
55648;DHT22;45266;48.756;9.246;2023-12-20T16:11:39;4.40;80.70
55648;DHT22;45266;48.756;9.246;2023-12-20T20:38:09;3.80;82.20
55648;DHT22;45266;48.756;9.246;2023-12-20T20:43:11;3.70;82.70
55648;DHT22;45266;48.756;9.246;2023-12-20T20:48:14;3.80;83.20
55648;DHT22;45266;48.756;9.246;2023-12-20T20:53:30;3.90;82.80
55648;DHT22;45266;48.756;9.246;2023-12-20T20:58:32;4.00;82.00
55648;DHT22;45266;48.756;9.246;2023-12-20T21:03:35;4.00;81.90
55648;DHT22;45266;48.756;9.246;2023-12-20T21:08:37;4.00;82.40
55648;DHT22;45266;48.756;9.246;2023-12-20T21:13:39;4.10;81.70
55648;DHT22;45266;48.756;9.246;2023-12-20T21:18:45;4.20;81.20
55648;DHT22;45266;48.756;9.246;2023-12-20T21:23:47;4.10;81.50
55648;DHT22;45266;48.756;9.246;2023-12-20T21:28:48;4.30;80.50
55648;DHT22;45266;48.756;9.246;2023-12-20T21:33:50;4.30;80.90
55648;DHT22;45266;48.756;9.246;2023-12-20T21:38:54;4.30;80.30
55648;DHT22;45266;48.756;9.246;2023-12-20T21:43:56;4.40;79.80
55648;DHT22;45266;48.756;9.246;2023-12-20T21:48:58;4.30;80.00
55648;DHT22;45266;48.756;9.246;2023-12-20T21:54:00;4.20;80.10
55648;DHT22;45266;48.756;9.246;2023-12-20T21:59:04;4.10;80.30
55648;DHT22;45266;48.756;9.246;2023-12-20T22:04:06;4.10;80.50
55648;DHT22;45266;48.756;9.246;2023-12-20T22:09:10;4.20;80.60
55648;DHT22;45266;48.756;9.246;2023-12-20T22:14:11;4.20;80.80
55648;DHT22;45266;48.756;9.246;2023-12-20T22:19:13;4.20;80.50
55648;DHT22;45266;48.756;9.246;2023-12-20T22:24:15;4.30;80.30
55648;DHT22;45266;48.756;9.246;2023-12-20T22:29:17;4.30;80.90
55648;DHT22;45266;48.756;9.246;2023-12-20T22:34:19;4.40;80.10
55648;DHT22;45266;48.756;9.246;2023-12-20T22:39:21;4.50;80.00
55648;DHT22;45266;48.756;9.246;2023-12-20T22:44:23;4.50;80.00
55648;DHT22;45266;48.756;9.246;2023-12-20T22:49:25;4.40;80.70
55648;DHT22;45266;48.756;9.246;2023-12-20T22:54:27;4.50;80.00
55648;DHT22;45266;48.756;9.246;2023-12-20T22:59:29;4.50;80.00
55648;DHT22;45266;48.756;9.246;2023-12-20T23:04:31;4.60;79.50
55648;DHT22;45266;48.756;9.246;2023-12-20T23:09:33;4.50;79.90
55648;DHT22;45266;48.756;9.246;2023-12-20T23:14:35;4.60;79.60
55648;DHT22;45266;48.756;9.246;2023-12-20T23:19:37;4.70;79.60
55648;DHT22;45266;48.756;9.246;2023-12-20T23:24:39;4.70;79.60
55648;DHT22;45266;48.756;9.246;2023-12-20T23:29:41;4.60;80.10
55648;DHT22;45266;48.756;9.246;2023-12-20T23:34:43;4.70;79.60
55648;DHT22;45266;48.756;9.246;2023-12-20T23:39:44;4.70;79.60
55648;DHT22;45266;48.756;9.246;2023-12-20T23:44:48;4.70;79.60
55648;DHT22;45266;48.756;9.246;2023-12-20T23:49:49;4.70;78.80
55648;DHT22;45266;48.756;9.246;2023-12-20T23:54:51;4.60;79.40
55648;DHT22;45266;48.756;9.246;2023-12-20T23:59:53;4.60;79.80
